Time;durP1;ratioP1;P1;durP2;ratioP2;P2;SDS_P1;SDS_P2;PMS_P1;PMS_P2;Temp;Humidity;BMP_temperature;BMP_pressure;BME280_temperature;BME280_humidity;BME280_pressure;Samples;Min_cycle;Max_cycle;Signal;HPM_P1;HPM_P2
2022/03/09 00:01:47;;;;;;;23.67;14.50;;;;;;;;;;5112825;28;20761;-74
2022/03/09 00:04:13;;;;;;;20.60;11.20;;;;;;;;;;5113093;28;20420;-74
2022/03/09 00:06:39;;;;;;;9.10;7.60;;;;;;;;;;5112724;28;20400;-74
2022/03/09 00:09:06;;;;;;;9.80;8.20;;;;;;;;;;5112884;28;20767;-75
2022/03/09 00:11:32;;;;;;;11.57;9.67;;;;;;;;;;5113039;28;20404;-74
2022/03/09 00:13:59;;;;;;;11.17;9.20;;;;;;;;;;5112972;28;20466;-74
2022/03/09 00:16:25;;;;;;;10.30;8.27;;;;;;;;;;5112789;28;20445;-74
2022/03/09 00:18:51;;;;;;;12.33;7.60;;;;;;;;;;5115436;28;20826;-74
2022/03/09 00:21:17;;;;;;;9.33;7.40;;;;;;;;;;5116599;28;20416;-74
2022/03/09 00:23:43;;;;;;;10.87;8.10;;;;;;;;;;5116336;28;20420;-74
2022/03/09 00:26:08;;;;;;;8.17;7.47;;;;;;;;;;5116396;28;20564;-74
2022/03/09 00:28:35;;;;;;;8.80;8.00;;;;;;;;;;5116114;28;20404;-75
2022/03/09 00:31:01;;;;;;;9.63;7.77;;;;;;;;;;5116302;28;20892;-74
2022/03/09 00:33:27;;;;;;;12.83;7.40;;;;;;;;;;5116136;28;20474;-74
2022/03/09 00:35:52;;;;;;;8.67;7.20;;;;;;;;;;5116053;28;20410;-74
2022/03/09 00:38:18;;;;;;;7.10;6.50;;;;;;;;;;5116557;28;20511;-74
2022/03/09 00:40:47;;;;;;;8.40;6.40;;;;;;;;;;5116095;28;20468;-74
2022/03/09 00:43:13;;;;;;;11.37;8.03;;;;;;;;;;5116096;28;20435;-75
2022/03/09 00:45:39;;;;;;;8.43;7.63;;;;;;;;;;5115796;28;20760;-75
2022/03/09 00:48:05;;;;;;;8.03;7.30;;;;;;;;;;5115802;28;20957;-75
2022/03/09 00:50:31;;;;;;;10.20;7.30;;;;;;;;;;5115928;28;20897;-74
2022/03/09 00:52:57;;;;;;;11.90;8.23;;;;;;;;;;5115897;28;20886;-74
2022/03/09 00:55:23;;;;;;;10.00;8.10;;;;;;;;;;5116153;28;20420;-74
2022/03/09 00:57:49;;;;;;;9.37;7.73;;;;;;;;;;5116013;28;20415;-74
2022/03/09 01:00:15;;;;;;;10.23;8.87;;;;;;;;;;5115919;28;20427;-74
2022/03/09 01:02:42;;;;;;;10.20;7.70;;;;;;;;;;5115785;28;20411;-74
2022/03/09 01:05:08;;;;;;;10.57;7.97;;;;;;;;;;5115855;28;20916;-75
2022/03/09 01:07:34;;;;;;;10.70;8.63;;;;;;;;;;5115475;28;20412;-74
2022/03/09 01:10:00;;;;;;;11.23;8.47;;;;;;;;;;5116031;28;20845;-74
2022/03/09 01:12:26;;;;;;;10.80;8.70;;;;;;;;;;5115806;28;20832;-75
2022/03/09 01:14:52;;;;;;;8.50;7.70;;;;;;;;;;5115465;28;20790;-75
2022/03/09 01:17:18;;;;;;;19.60;10.17;;;;;;;;;;5115414;28;20928;-74
2022/03/09 01:19:44;;;;;;;15.57;9.80;;;;;;;;;;5115312;28;20426;-74
2022/03/09 01:22:10;;;;;;;15.90;10.50;;;;;;;;;;5115186;28;20894;-74
2022/03/09 01:24:36;;;;;;;16.17;11.00;;;;;;;;;;5115324;28;20473;-77
2022/03/09 01:27:02;;;;;;;9.73;8.67;;;;;;;;;;5115209;28;20494;-75
2022/03/09 01:29:28;;;;;;;14.90;9.50;;;;;;;;;;5114656;28;20945;-74
2022/03/09 01:31:54;;;;;;;12.73;10.20;;;;;;;;;;5115016;28;20507;-74
2022/03/09 01:34:20;;;;;;;10.60;9.60;;;;;;;;;;5114911;28;20495;-77
2022/03/09 01:36:46;;;;;;;9.13;8.30;;;;;;;;;;5114833;28;20412;-74
2022/03/09 01:39:12;;;;;;;10.03;9.10;;;;;;;;;;5114885;28;20420;-74
2022/03/09 01:41:38;;;;;;;8.90;8.10;;;;;;;;;;5115064;28;20503;-75
2022/03/09 01:44:05;;;;;;;8.23;7.37;;;;;;;;;;5115007;28;20510;-74
2022/03/09 01:46:31;;;;;;;8.57;7.77;;;;;;;;;;5096520;28;20431;-74
2022/03/09 01:48:57;;;;;;;11.47;9.10;;;;;;;;;;5114488;28;20482;-74
2022/03/09 01:51:23;;;;;;;9.03;8.07;;;;;;;;;;5114390;28;20407;-74
2022/03/09 01:53:49;;;;;;;12.57;8.00;;;;;;;;;;5114752;28;20467;-74
2022/03/09 01:56:16;;;;;;;6.93;6.43;;;;;;;;;;5114044;28;20439;-74
2022/03/09 01:58:42;;;;;;;8.37;7.57;;;;;;;;;;5114254;28;20419;-74
2022/03/09 02:01:07;;;;;;;7.43;6.40;;;;;;;;;;5113721;28;20411;-74
2022/03/09 02:06:38;;;;;;;10.37;6.53;;;;;;;;;;5114503;28;20931;-74
2022/03/09 02:11:50;;;;;;;8.87;7.50;;;;;;;;;;5114543;28;20434;-74
2022/03/09 02:14:28;;;;;;;7.87;7.17;;;;;;;;;;5113899;28;20524;-74
2022/03/09 02:16:55;;;;;;;7.90;7.30;;;;;;;;;;5114206;28;20823;-75
2022/03/09 02:19:21;;;;;;;7.40;6.70;;;;;;;;;;5113990;28;20498;-75
2022/03/09 02:21:48;;;;;;;7.20;6.50;;;;;;;;;;5114345;28;20423;-74
2022/03/09 02:24:14;;;;;;;8.20;7.40;;;;;;;;;;5114394;28;20446;-74
2022/03/09 02:26:41;;;;;;;8.10;7.40;;;;;;;;;;5114041;28;20500;-74
2022/03/09 02:29:07;;;;;;;11.27;7.17;;;;;;;;;;5113918;28;20408;-74
2022/03/09 02:31:32;;;;;;;9.40;7.40;;;;;;;;;;5114018;28;20924;-74
2022/03/09 02:33:58;;;;;;;8.17;6.90;;;;;;;;;;5114406;28;20467;-74
2022/03/09 02:36:24;;;;;;;6.70;6.20;;;;;;;;;;5114057;28;20771;-75
2022/03/09 02:38:50;;;;;;;7.40;6.70;;;;;;;;;;5114022;28;20420;-74
2022/03/09 02:41:16;;;;;;;7.00;6.23;;;;;;;;;;5113529;28;20449;-75
2022/03/09 02:43:42;;;;;;;7.30;6.77;;;;;;;;;;5113696;28;20416;-75
2022/03/09 02:46:08;;;;;;;7.67;6.97;;;;;;;;;;5113670;28;20419;-74
2022/03/09 02:48:34;;;;;;;8.17;7.10;;;;;;;;;;5113425;28;20467;-75
2022/03/09 02:51:00;;;;;;;8.20;6.80;;;;;;;;;;5113797;28;20547;-75
2022/03/09 02:53:26;;;;;;;7.87;6.97;;;;;;;;;;5113342;28;20480;-75
2022/03/09 02:55:52;;;;;;;6.67;6.17;;;;;;;;;;5113728;28;20972;-74
2022/03/09 02:58:18;;;;;;;7.23;6.53;;;;;;;;;;5113465;28;20422;-75
2022/03/09 03:00:44;;;;;;;6.73;6.13;;;;;;;;;;5113639;28;20435;-75
2022/03/09 03:03:10;;;;;;;19.93;8.60;;;;;;;;;;5113346;28;20426;-75
2022/03/09 03:05:36;;;;;;;6.30;5.90;;;;;;;;;;5113392;28;20412;-76
2022/03/09 03:08:02;;;;;;;7.90;7.03;;;;;;;;;;5113416;28;20451;-75
2022/03/09 03:10:28;;;;;;;7.53;6.20;;;;;;;;;;5113556;28;20800;-75
2022/03/09 03:15:57;;;;;;;7.80;6.53;;;;;;;;;;5113444;28;20922;-75
2022/03/09 03:18:23;;;;;;;9.07;8.13;;;;;;;;;;5113540;28;20404;-75
2022/03/09 03:20:54;;;;;;;6.97;6.43;;;;;;;;;;5113813;28;20519;-74
2022/03/09 03:23:20;;;;;;;9.10;5.90;;;;;;;;;;5113429;28;20441;-74
2022/03/09 03:25:46;;;;;;;8.17;7.10;;;;;;;;;;5113912;28;20403;-76
2022/03/09 03:28:12;;;;;;;7.03;6.43;;;;;;;;;;5113520;28;20881;-75
2022/03/09 03:30:38;;;;;;;10.10;7.00;;;;;;;;;;5113468;28;20491;-75
2022/03/09 03:33:04;;;;;;;8.23;7.43;;;;;;;;;;5113294;28;20983;-75
2022/03/09 03:35:30;;;;;;;31.63;9.07;;;;;;;;;;5113267;28;20416;-74
2022/03/09 03:37:56;;;;;;;10.60;8.20;;;;;;;;;;5113018;28;20415;-74
2022/03/09 03:40:21;;;;;;;10.60;7.00;;;;;;;;;;5113028;28;20416;-75
2022/03/09 03:42:47;;;;;;;8.87;7.77;;;;;;;;;;5112991;28;20428;-75
2022/03/09 03:45:13;;;;;;;8.57;7.77;;;;;;;;;;5112915;28;20415;-74
2022/03/09 03:47:39;;;;;;;8.10;7.33;;;;;;;;;;5112834;28;20436;-75
2022/03/09 03:50:05;;;;;;;10.80;8.97;;;;;;;;;;5112871;28;20507;-75
2022/03/09 03:52:31;;;;;;;13.80;9.80;;;;;;;;;;5113664;28;20424;-75
2022/03/09 03:54:57;;;;;;;16.27;11.27;;;;;;;;;;5116899;28;20438;-74
2022/03/09 03:57:24;;;;;;;10.10;8.13;;;;;;;;;;5117194;28;20535;-74
2022/03/09 03:59:50;;;;;;;24.57;13.53;;;;;;;;;;5116769;28;20455;-75
2022/03/09 04:02:16;;;;;;;13.50;10.43;;;;;;;;;;5116786;28;20484;-75
2022/03/09 04:04:42;;;;;;;11.90;8.60;;;;;;;;;;5116991;28;20941;-75
2022/03/09 04:07:08;;;;;;;8.67;7.77;;;;;;;;;;5116772;28;20793;-75
2022/03/09 04:09:34;;;;;;;12.10;8.20;;;;;;;;;;5116684;28;20416;-75
2022/03/09 04:12:00;;;;;;;18.50;10.13;;;;;;;;;;5116862;28;20453;-75
2022/03/09 04:14:26;;;;;;;18.53;10.03;;;;;;;;;;5116493;28;20466;-75
2022/03/09 04:16:52;;;;;;;12.90;9.20;;;;;;;;;;5116613;28;20908;-75
2022/03/09 04:19:18;;;;;;;9.60;8.50;;;;;;;;;;5116398;28;20435;-75
2022/03/09 04:21:44;;;;;;;33.37;9.87;;;;;;;;;;5116626;28;20416;-75
2022/03/09 04:24:10;;;;;;;12.17;8.67;;;;;;;;;;5116423;28;20873;-75
2022/03/09 04:26:36;;;;;;;21.10;11.73;;;;;;;;;;5116207;28;20404;-75
2022/03/09 04:29:03;;;;;;;18.40;10.87;;;;;;;;;;5116210;28;20410;-74
2022/03/09 04:31:29;;;;;;;17.27;10.70;;;;;;;;;;5116623;28;20464;-75
2022/03/09 04:33:55;;;;;;;15.30;10.47;;;;;;;;;;5116186;28;20473;-75
2022/03/09 04:36:21;;;;;;;15.60;10.10;;;;;;;;;;5116514;28;20415;-75
2022/03/09 04:38:47;;;;;;;14.00;10.00;;;;;;;;;;5115955;28;20422;-75
2022/03/09 04:41:13;;;;;;;28.33;12.10;;;;;;;;;;5116277;28;20407;-75
2022/03/09 04:43:39;;;;;;;17.97;10.33;;;;;;;;;;5116735;28;20427;-75
2022/03/09 04:46:05;;;;;;;16.20;10.67;;;;;;;;;;5116216;28;20966;-75
2022/03/09 04:48:31;;;;;;;15.83;11.40;;;;;;;;;;5115606;28;20474;-75
2022/03/09 04:50:57;;;;;;;16.30;10.20;;;;;;;;;;5115902;28;20472;-74
2022/03/09 04:53:23;;;;;;;14.30;10.33;;;;;;;;;;5115582;28;20448;-75
2022/03/09 04:55:49;;;;;;;15.80;10.13;;;;;;;;;;5116035;28;20777;-75
2022/03/09 04:58:15;;;;;;;14.07;9.10;;;;;;;;;;5115828;28;20400;-75
2022/03/09 05:00:41;;;;;;;20.10;9.77;;;;;;;;;;5115645;28;20913;-75
2022/03/09 05:03:07;;;;;;;18.03;10.50;;;;;;;;;;5115647;28;20511;-75
2022/03/09 05:05:33;;;;;;;12.60;9.17;;;;;;;;;;5114197;28;20465;-75
2022/03/09 05:07:59;;;;;;;13.97;9.73;;;;;;;;;;5115650;28;20418;-75
2022/03/09 05:10:25;;;;;;;10.23;9.30;;;;;;;;;;5115576;28;20498;-75
2022/03/09 05:12:50;;;;;;;11.30;10.10;;;;;;;;;;5115561;28;20420;-75
2022/03/09 05:15:16;;;;;;;12.30;9.30;;;;;;;;;;5116156;28;20461;-75
2022/03/09 05:17:43;;;;;;;11.53;10.33;;;;;;;;;;5115648;28;20446;-75
2022/03/09 05:20:09;;;;;;;12.60;9.50;;;;;;;;;;5115898;28;20428;-75
2022/03/09 05:22:35;;;;;;;11.20;8.43;;;;;;;;;;5115126;28;20870;-75
2022/03/09 05:25:01;;;;;;;13.07;9.90;;;;;;;;;;5096714;28;20590;-75
2022/03/09 05:27:27;;;;;;;13.47;10.10;;;;;;;;;;5115317;28;20456;-75
2022/03/09 05:29:54;;;;;;;13.10;8.53;;;;;;;;;;5115324;28;20909;-75
2022/03/09 05:32:20;;;;;;;10.00;8.10;;;;;;;;;;5115018;28;20430;-75
2022/03/09 05:34:47;;;;;;;9.70;8.00;;;;;;;;;;5115177;28;20475;-75
2022/03/09 05:37:13;;;;;;;12.93;10.97;;;;;;;;;;5114926;28;20412;-75
2022/03/09 05:39:39;;;;;;;12.90;8.37;;;;;;;;;;5114924;28;20423;-75
2022/03/09 05:42:06;;;;;;;12.63;9.10;;;;;;;;;;5114692;28;20504;-75
2022/03/09 05:44:32;;;;;;;10.87;9.77;;;;;;;;;;5114719;28;20416;-75
2022/03/09 05:46:58;;;;;;;11.37;9.57;;;;;;;;;;5114806;28;20422;-75
2022/03/09 05:49:24;;;;;;;13.67;9.30;;;;;;;;;;5114313;28;20464;-75
2022/03/09 05:51:52;;;;;;;10.90;8.03;;;;;;;;;;5114737;28;20978;-75
2022/03/09 05:54:18;;;;;;;12.17;9.77;;;;;;;;;;5114555;28;20470;-75
2022/03/09 05:56:44;;;;;;;11.80;9.70;;;;;;;;;;5114489;28;20443;-75
2022/03/09 05:59:11;;;;;;;8.83;8.03;;;;;;;;;;5114634;28;20799;-75
2022/03/09 06:01:37;;;;;;;11.43;8.70;;;;;;;;;;5114407;28;20502;-75
2022/03/09 06:04:03;;;;;;;11.87;9.43;;;;;;;;;;5114239;28;20424;-75
2022/03/09 06:06:30;;;;;;;11.93;9.03;;;;;;;;;;5114141;28;20411;-75
2022/03/09 06:08:56;;;;;;;13.63;9.80;;;;;;;;;;5114621;28;20452;-75
2022/03/09 06:11:21;;;;;;;17.10;10.03;;;;;;;;;;5114140;28;20408;-75
2022/03/09 06:13:47;;;;;;;11.67;9.87;;;;;;;;;;5114376;28;20489;-75
2022/03/09 06:16:13;;;;;;;14.97;10.83;;;;;;;;;;5113729;28;20420;-75
2022/03/09 06:18:39;;;;;;;21.90;14.03;;;;;;;;;;5114402;28;20889;-75
2022/03/09 06:21:05;;;;;;;15.77;10.87;;;;;;;;;;5113985;28;20458;-75
2022/03/09 06:23:32;;;;;;;15.67;11.20;;;;;;;;;;5114029;28;20436;-75
2022/03/09 06:25:58;;;;;;;12.43;10.03;;;;;;;;;;5113847;28;20430;-75
2022/03/09 06:28:24;;;;;;;16.03;10.20;;;;;;;;;;5113914;28;20503;-76
2022/03/09 06:30:50;;;;;;;16.33;10.67;;;;;;;;;;5114239;28;20411;-75
2022/03/09 06:33:16;;;;;;;36.90;14.07;;;;;;;;;;5113871;28;20971;-75
2022/03/09 06:35:42;;;;;;;21.97;11.20;;;;;;;;;;5113758;28;20504;-75
2022/03/09 06:38:08;;;;;;;16.00;9.93;;;;;;;;;;5113894;28;20936;-75
2022/03/09 06:40:34;;;;;;;16.30;10.80;;;;;;;;;;5113714;28;20419;-74
2022/03/09 06:43:00;;;;;;;24.20;12.43;;;;;;;;;;5113590;28;20882;-74
2022/03/09 06:45:27;;;;;;;25.50;11.00;;;;;;;;;;5113390;28;20423;-75
2022/03/09 06:47:53;;;;;;;24.33;12.93;;;;;;;;;;5113531;28;20458;-74
2022/03/09 06:50:19;;;;;;;18.13;10.43;;;;;;;;;;5113668;28;20412;-75
2022/03/09 06:52:44;;;;;;;39.60;11.10;;;;;;;;;;5113508;28;20750;-73
2022/03/09 06:55:12;;;;;;;25.90;11.57;;;;;;;;;;5113654;28;20525;-75
2022/03/09 06:57:39;;;;;;;32.83;16.10;;;;;;;;;;5113176;28;20852;-74
2022/03/09 07:00:06;;;;;;;35.37;22.00;;;;;;;;;;5113645;28;20462;-76
2022/03/09 07:02:32;;;;;;;41.63;23.83;;;;;;;;;;5113296;28;20775;-76
2022/03/09 07:04:58;;;;;;;43.70;25.17;;;;;;;;;;5113306;28;20412;-74
2022/03/09 07:07:24;;;;;;;45.40;20.80;;;;;;;;;;5113379;28;20411;-75
2022/03/09 07:09:50;;;;;;;33.30;21.50;;;;;;;;;;5113272;28;21004;-76
2022/03/09 07:12:16;;;;;;;44.10;24.17;;;;;;;;;;5113438;28;20439;-75
2022/03/09 07:14:42;;;;;;;48.60;24.30;;;;;;;;;;5113388;28;20475;-76
2022/03/09 07:17:08;;;;;;;40.27;21.33;;;;;;;;;;5113531;28;20395;-75
2022/03/09 07:19:34;;;;;;;40.23;21.37;;;;;;;;;;5113228;28;20411;-74
2022/03/09 07:22:00;;;;;;;35.13;20.57;;;;;;;;;;5113182;28;20416;-74
2022/03/09 07:24:26;;;;;;;41.93;16.80;;;;;;;;;;5113461;28;20447;-74
2022/03/09 07:26:53;;;;;;;28.20;16.70;;;;;;;;;;5113109;28;20924;-74
2022/03/09 07:29:20;;;;;;;27.60;17.17;;;;;;;;;;5116725;28;20498;-73
2022/03/09 07:31:46;;;;;;;32.80;14.67;;;;;;;;;;5117572;28;20415;-75
2022/03/09 07:34:12;;;;;;;26.63;13.00;;;;;;;;;;5117280;28;21047;-74
2022/03/09 07:36:38;;;;;;;20.47;12.60;;;;;;;;;;5117356;28;20450;-79
2022/03/09 07:39:04;;;;;;;14.33;11.50;;;;;;;;;;5117665;28;20426;-73
2022/03/09 07:41:30;;;;;;;16.07;11.10;;;;;;;;;;5117867;28;20411;-73
2022/03/09 07:43:56;;;;;;;21.33;12.43;;;;;;;;;;5117413;28;20415;-74
2022/03/09 07:46:22;;;;;;;15.90;11.60;;;;;;;;;;5117271;28;20456;-74
2022/03/09 07:48:48;;;;;;;18.87;12.67;;;;;;;;;;5116950;28;20969;-74
2022/03/09 07:51:14;;;;;;;23.20;13.60;;;;;;;;;;5098765;28;20419;-74
2022/03/09 07:53:42;;;;;;;18.00;13.47;;;;;;;;;;5116802;28;20472;-73
2022/03/09 07:56:10;;;;;;;23.70;13.80;;;;;;;;;;5098689;28;20435;-74
2022/03/09 07:58:36;;;;;;;20.87;13.43;;;;;;;;;;5116896;28;20415;-74
2022/03/09 08:01:02;;;;;;;21.37;13.93;;;;;;;;;;5116761;28;20846;-74
2022/03/09 08:06:32;;;;;;;19.03;11.57;;;;;;;;;;5116923;28;20920;-75
2022/03/09 08:08:58;;;;;;;20.50;14.07;;;;;;;;;;5116607;28;20968;-77
2022/03/09 08:11:24;;;;;;;22.00;13.40;;;;;;;;;;5116994;28;20409;-76
2022/03/09 08:13:50;;;;;;;21.93;13.97;;;;;;;;;;5116462;28;20588;-75
2022/03/09 08:16:16;;;;;;;21.70;14.07;;;;;;;;;;5116278;28;20422;-74
2022/03/09 08:18:42;;;;;;;18.40;14.40;;;;;;;;;;5116760;28;20404;-74
2022/03/09 08:21:08;;;;;;;28.00;14.40;;;;;;;;;;5116721;28;20427;-74
2022/03/09 08:23:34;;;;;;;24.53;14.97;;;;;;;;;;5116587;28;20419;-75
2022/03/09 08:26:00;;;;;;;27.20;14.30;;;;;;;;;;5116372;28;20423;-74
2022/03/09 08:28:26;;;;;;;28.70;13.67;;;;;;;;;;5116295;28;20495;-74
2022/03/09 08:30:54;;;;;;;17.93;13.40;;;;;;;;;;5116353;28;20424;-74
2022/03/09 08:33:20;;;;;;;31.13;13.20;;;;;;;;;;5116278;28;20469;-74
2022/03/09 08:35:46;;;;;;;22.70;13.43;;;;;;;;;;5115682;28;20408;-74
2022/03/09 08:38:12;;;;;;;20.30;13.47;;;;;;;;;;5115695;28;20197;-74
2022/03/09 08:40:38;;;;;;;16.23;12.20;;;;;;;;;;5115759;28;20476;-74
2022/03/09 08:43:04;;;;;;;21.40;13.80;;;;;;;;;;5116158;28;20506;-74
2022/03/09 08:45:30;;;;;;;21.03;13.53;;;;;;;;;;5116078;28;20416;-74
2022/03/09 08:47:56;;;;;;;20.70;13.00;;;;;;;;;;5115813;28;20459;-74
2022/03/09 08:50:22;;;;;;;16.77;13.33;;;;;;;;;;5098003;28;20428;-74
2022/03/09 08:52:48;;;;;;;16.60;12.30;;;;;;;;;;5115821;28;20520;-74
2022/03/09 08:55:14;;;;;;;18.37;13.17;;;;;;;;;;5115694;28;20446;-74
2022/03/09 08:57:40;;;;;;;18.13;11.90;;;;;;;;;;5115918;28;20536;-74
2022/03/09 09:00:06;;;;;;;18.27;11.47;;;;;;;;;;5116058;28;20427;-73
2022/03/09 09:02:32;;;;;;;17.27;12.77;;;;;;;;;;5097362;28;20507;-74
2022/03/09 09:04:58;;;;;;;16.27;10.40;;;;;;;;;;5115600;28;20503;-74
2022/03/09 09:07:24;;;;;;;17.40;11.93;;;;;;;;;;5115608;28;20901;-74
2022/03/09 09:09:50;;;;;;;18.70;12.30;;;;;;;;;;5115193;28;20931;-74
2022/03/09 09:12:16;;;;;;;18.93;11.97;;;;;;;;;;5115332;28;20415;-74
2022/03/09 09:14:43;;;;;;;16.80;11.43;;;;;;;;;;5115124;28;20801;-74
2022/03/09 09:17:09;;;;;;;19.90;11.10;;;;;;;;;;5115597;28;20806;-75
2022/03/09 09:19:35;;;;;;;14.20;11.10;;;;;;;;;;5115660;28;20447;-75
2022/03/09 09:22:03;;;;;;;19.38;11.75;;;;;;;;;;5096654;28;20414;-68
2022/03/09 09:24:29;;;;;;;16.23;11.30;;;;;;;;;;5115494;28;20264;-75
2022/03/09 09:26:55;;;;;;;15.63;10.37;;;;;;;;;;5115002;28;20452;-75
2022/03/09 09:29:21;;;;;;;17.07;10.47;;;;;;;;;;5115084;28;20419;-74
2022/03/09 09:31:48;;;;;;;15.43;9.90;;;;;;;;;;5115563;28;20848;-74
2022/03/09 09:34:14;;;;;;;15.33;10.50;;;;;;;;;;5115859;28;20467;-74
2022/03/09 09:36:43;;;;;;;13.40;10.67;;;;;;;;;;5114805;28;20900;-74
2022/03/09 09:39:09;;;;;;;13.93;11.50;;;;;;;;;;5114668;28;20423;-74
2022/03/09 09:41:36;;;;;;;13.60;10.37;;;;;;;;;;5114958;28;20420;-74
2022/03/09 09:44:02;;;;;;;14.07;9.70;;;;;;;;;;5114743;28;20424;-74
2022/03/09 09:46:28;;;;;;;13.23;10.03;;;;;;;;;;5115062;28;20408;-74
2022/03/09 09:48:54;;;;;;;16.30;10.87;;;;;;;;;;5114607;28;20528;-74
2022/03/09 09:51:23;;;;;;;16.40;10.60;;;;;;;;;;5114311;28;20958;-74
2022/03/09 09:53:49;;;;;;;23.50;11.27;;;;;;;;;;5114712;28;20467;-74
2022/03/09 09:56:15;;;;;;;18.90;11.23;;;;;;;;;;5114650;28;20414;-74
2022/03/09 09:58:42;;;;;;;13.57;9.57;;;;;;;;;;5114516;28;20420;-74
2022/03/09 10:01:08;;;;;;;12.27;9.40;;;;;;;;;;5114594;28;20412;-74
2022/03/09 10:03:35;;;;;;;14.33;9.07;;;;;;;;;;5114593;28;20924;-74
2022/03/09 10:06:01;;;;;;;17.63;9.30;;;;;;;;;;5114305;28;21004;-74
2022/03/09 10:08:26;;;;;;;12.33;8.67;;;;;;;;;;5114188;28;20442;-73
2022/03/09 10:10:54;;;;;;;13.03;10.30;;;;;;;;;;5114716;28;20861;-74
2022/03/09 10:13:22;;;;;;;11.30;9.43;;;;;;;;;;5114186;28;20517;-74
2022/03/09 10:15:50;;;;;;;15.17;10.60;;;;;;;;;;5114497;28;20785;-74
2022/03/09 10:18:20;;;;;;;13.43;9.70;;;;;;;;;;5114339;28;20545;-74
2022/03/09 10:20:47;;;;;;;24.23;10.87;;;;;;;;;;5114491;28;20415;-74
2022/03/09 10:23:13;;;;;;;16.90;10.97;;;;;;;;;;5113995;28;20416;-74
2022/03/09 10:25:40;;;;;;;12.37;10.07;;;;;;;;;;5114237;28;20468;-73
2022/03/09 10:28:07;;;;;;;16.63;9.17;;;;;;;;;;5114125;28;20420;-74
2022/03/09 10:30:34;;;;;;;13.10;9.90;;;;;;;;;;5114628;28;20437;-75
2022/03/09 10:33:01;;;;;;;15.17;11.50;;;;;;;;;;5114025;28;20416;-75
2022/03/09 10:35:30;;;;;;;13.53;9.23;;;;;;;;;;5114173;28;20458;-75
2022/03/09 10:37:59;;;;;;;16.73;9.27;;;;;;;;;;5095496;28;20834;-75
2022/03/09 10:40:25;;;;;;;18.07;9.60;;;;;;;;;;5113871;28;20493;-75
2022/03/09 10:42:51;;;;;;;20.27;10.77;;;;;;;;;;5114244;28;20520;-74
2022/03/09 10:45:17;;;;;;;20.07;10.43;;;;;;;;;;5114001;28;20415;-74
2022/03/09 10:47:44;;;;;;;15.70;10.07;;;;;;;;;;5113321;28;20475;-75
2022/03/09 10:50:11;;;;;;;10.70;9.43;;;;;;;;;;5113992;28;20466;-74
2022/03/09 10:52:48;;;;;;;13.80;10.03;;;;;;;;;;5113778;28;20791;-74
2022/03/09 10:55:24;;;;;;;18.60;11.00;;;;;;;;;;5113601;28;20435;-75
2022/03/09 10:57:51;;;;;;;16.67;10.77;;;;;;;;;;5095041;28;20511;-75
2022/03/09 11:00:34;;;;;;;20.73;11.03;;;;;;;;;;5113443;28;20416;-75
2022/03/09 11:03:04;;;;;;;19.30;10.93;;;;;;;;;;5113370;28;20546;-75
2022/03/09 11:05:30;;;;;;;16.47;11.23;;;;;;;;;;5113719;28;20424;-74
2022/03/09 11:07:57;;;;;;;18.80;13.00;;;;;;;;;;5113497;28;20928;-74
2022/03/09 11:10:25;;;;;;;16.20;11.50;;;;;;;;;;5113643;28;20423;-74
2022/03/09 11:12:51;;;;;;;17.63;11.73;;;;;;;;;;5095020;28;20434;-74
2022/03/09 11:15:20;;;;;;;14.53;10.93;;;;;;;;;;5113064;28;20430;-74
2022/03/09 11:17:48;;;;;;;20.67;12.03;;;;;;;;;;5113389;28;20956;-75
2022/03/09 11:20:17;;;;;;;17.37;10.73;;;;;;;;;;5112875;28;20419;-74
2022/03/09 11:22:43;;;;;;;21.30;12.80;;;;;;;;;;5113002;28;20907;-74
2022/03/09 11:25:10;;;;;;;14.83;11.03;;;;;;;;;;5113064;28;20416;-74
2022/03/09 11:27:46;;;;;;;19.83;12.33;;;;;;;;;;5112857;28;20408;-76
2022/03/09 11:30:22;;;;;;;16.70;10.90;;;;;;;;;;5113137;28;20423;-75
2022/03/09 11:32:49;;;;;;;18.47;10.97;;;;;;;;;;5113281;28;20819;-74
2022/03/09 11:35:34;;;;;;;16.37;11.40;;;;;;;;;;5113345;28;20798;-74
2022/03/09 11:38:00;;;;;;;22.23;12.67;;;;;;;;;;5113267;28;20450;-75
2022/03/09 11:40:26;;;;;;;40.43;23.97;;;;;;;;;;5113239;28;20450;-74
2022/03/09 11:42:52;;;;;;;25.40;14.00;;;;;;;;;;5113162;28;20423;-74
2022/03/09 11:45:20;;;;;;;16.87;11.57;;;;;;;;;;5112987;28;20769;-75
2022/03/09 11:48:02;;;;;;;16.43;11.10;;;;;;;;;;5112453;28;20559;-75
2022/03/09 11:50:28;;;;;;;28.20;12.93;;;;;;;;;;5113230;28;20431;-74
2022/03/09 11:53:05;;;;;;;18.90;12.20;;;;;;;;;;5113076;28;20558;-74
2022/03/09 11:55:31;;;;;;;17.53;12.20;;;;;;;;;;5112907;28;20412;-75
2022/03/09 11:58:04;;;;;;;14.03;11.00;;;;;;;;;;5112731;28;20419;-75
2022/03/09 12:00:30;;;;;;;13.83;10.93;;;;;;;;;;5113020;28;20780;-75
2022/03/09 12:02:57;;;;;;;17.80;11.77;;;;;;;;;;5112892;28;20415;-75
2022/03/09 12:05:26;;;;;;;18.53;11.00;;;;;;;;;;5112613;28;20422;-74
2022/03/09 12:07:55;;;;;;;22.93;13.57;;;;;;;;;;5112858;28;20427;-75
2022/03/09 12:10:40;;;;;;;24.47;13.17;;;;;;;;;;5113806;28;20608;-75
2022/03/09 12:13:09;;;;;;;16.37;12.20;;;;;;;;;;5113065;28;20465;-74
2022/03/09 12:15:55;;;;;;;18.13;13.33;;;;;;;;;;5116647;28;20415;-74
2022/03/09 12:18:39;;;;;;;14.90;11.33;;;;;;;;;;5116143;28;20492;-73
2022/03/09 12:21:06;;;;;;;20.20;11.90;;;;;;;;;;5116610;28;20416;-74
2022/03/09 12:23:33;;;;;;;24.97;11.40;;;;;;;;;;5116101;28;20422;-73
2022/03/09 12:26:01;;;;;;;17.90;11.70;;;;;;;;;;5116121;28;20424;-74
2022/03/09 12:28:34;;;;;;;30.57;16.60;;;;;;;;;;5116111;28;20503;-74
2022/03/09 12:31:03;;;;;;;51.47;24.87;;;;;;;;;;5116264;28;20430;-74
2022/03/09 12:33:30;;;;;;;31.00;16.90;;;;;;;;;;5116464;28;20470;-73
2022/03/09 12:36:11;;;;;;;24.10;14.30;;;;;;;;;;5116419;28;20419;-74
2022/03/09 12:38:38;;;;;;;20.40;13.67;;;;;;;;;;5116089;28;20412;-74
2022/03/09 12:41:05;;;;;;;25.60;15.57;;;;;;;;;;5116188;28;20882;-74
2022/03/09 12:46:35;;;;;;;19.03;11.50;;;;;;;;;;5115986;28;20489;-73
2022/03/09 12:49:01;;;;;;;15.53;10.53;;;;;;;;;;5097131;28;20554;-74
2022/03/09 12:51:27;;;;;;;17.10;10.00;;;;;;;;;;5115822;28;20423;-74
2022/03/09 12:53:53;;;;;;;18.27;10.17;;;;;;;;;;5116225;28;20504;-74
2022/03/09 12:56:20;;;;;;;13.00;8.40;;;;;;;;;;5115435;28;20419;-74
2022/03/09 12:58:46;;;;;;;7.47;6.73;;;;;;;;;;5115476;28;20902;-74
2022/03/09 13:01:13;;;;;;;14.47;8.93;;;;;;;;;;5115814;28;20419;-73
2022/03/09 13:03:43;;;;;;;13.50;8.73;;;;;;;;;;5115766;28;20481;-74
2022/03/09 13:06:23;;;;;;;14.93;9.53;;;;;;;;;;5115427;28;20838;-73
2022/03/09 13:08:49;;;;;;;9.03;8.13;;;;;;;;;;5115841;28;20415;-74
2022/03/09 13:11:31;;;;;;;9.30;7.77;;;;;;;;;;5115873;28;20465;-74
2022/03/09 13:13:57;;;;;;;12.80;9.10;;;;;;;;;;5114916;28;20459;-74
2022/03/09 13:16:26;;;;;;;16.63;10.27;;;;;;;;;;5115222;28;20423;-77
2022/03/09 13:18:56;;;;;;;16.67;8.67;;;;;;;;;;5115252;28;20870;-75
2022/03/09 13:21:25;;;;;;;16.63;10.20;;;;;;;;;;5115859;28;20505;-74
2022/03/09 13:23:51;;;;;;;15.43;10.17;;;;;;;;;;5115547;28;20403;-75
2022/03/09 13:26:18;;;;;;;15.47;9.87;;;;;;;;;;5114223;28;20427;-75
2022/03/09 13:28:48;;;;;;;31.23;11.20;;;;;;;;;;5115182;28;20414;-73
2022/03/09 13:31:17;;;;;;;14.40;10.37;;;;;;;;;;5115569;28;20764;-75
2022/03/09 13:33:44;;;;;;;14.93;9.30;;;;;;;;;;5115178;28;20471;-74
2022/03/09 13:36:14;;;;;;;19.80;8.30;;;;;;;;;;5096733;28;20420;-73
2022/03/09 13:38:42;;;;;;;14.82;9.60;;;;;;;;;;5114739;28;20407;-73
2022/03/09 13:41:09;;;;;;;8.20;6.07;;;;;;;;;;5115117;28;20174;-74
2022/03/09 13:43:40;;;;;;;28.47;16.20;;;;;;;;;;5114908;28;20489;-73
2022/03/09 13:46:12;;;;;;;23.50;13.17;;;;;;;;;;5115255;28;20465;-73
2022/03/09 13:48:38;;;;;;;16.83;9.53;;;;;;;;;;5114662;28;20884;-73
2022/03/09 13:51:04;;;;;;;14.73;10.13;;;;;;;;;;5114835;28;20416;-73
2022/03/09 13:53:32;;;;;;;15.20;8.27;;;;;;;;;;5096465;28;20467;-73
2022/03/09 13:55:58;;;;;;;17.43;10.10;;;;;;;;;;5114666;28;20913;-73
2022/03/09 13:58:26;;;;;;;20.10;12.53;;;;;;;;;;5114888;28;20431;-73
2022/03/09 14:01:03;;;;;;;20.17;9.83;;;;;;;;;;5096895;28;20433;-72
2022/03/09 14:03:29;;;;;;;18.00;9.80;;;;;;;;;;5114838;28;20468;-73
2022/03/09 14:05:55;;;;;;;20.20;11.37;;;;;;;;;;5114644;28;20419;-72
2022/03/09 14:08:31;;;;;;;25.10;13.17;;;;;;;;;;5114507;28;20411;-73
2022/03/09 14:11:16;;;;;;;17.80;10.63;;;;;;;;;;5114721;28;20415;-73
2022/03/09 14:14:17;;;;;;;20.17;11.60;;;;;;;;;;5114203;28;20843;-72
2022/03/09 14:16:43;;;;;;;16.63;10.00;;;;;;;;;;5061233;28;20931;-73
2022/03/09 14:19:11;;;;;;;24.40;12.93;;;;;;;;;;5114167;28;20436;-72
2022/03/09 14:21:38;;;;;;;21.67;11.10;;;;;;;;;;5114411;28;20460;-73
2022/03/09 14:24:04;;;;;;;26.97;14.33;;;;;;;;;;5114015;28;20503;-72
2022/03/09 14:26:31;;;;;;;16.77;10.83;;;;;;;;;;5114219;28;20404;-73
2022/03/09 14:28:58;;;;;;;18.33;9.20;;;;;;;;;;5113996;28;20460;-72
2022/03/09 14:31:25;;;;;;;13.70;10.13;;;;;;;;;;5095773;28;20977;-72
2022/03/09 14:33:51;;;;;;;17.60;11.27;;;;;;;;;;5113996;28;20467;-73
2022/03/09 14:36:18;;;;;;;23.93;10.37;;;;;;;;;;5113927;28;20542;-72
2022/03/09 14:38:46;;;;;;;17.57;10.30;;;;;;;;;;5113744;28;20412;-73
2022/03/09 14:41:13;;;;;;;6.00;5.50;;;;;;;;;;5113889;28;20447;-73